createdAt,value
2022-09-05T00:00:14.807Z,100587.19
2022-09-05T00:03:33.754Z,100591.53
2022-09-05T00:06:09.141Z,100588.06
2022-09-05T00:08:52.637Z,100583.59
2022-09-05T00:11:43.831Z,100593.41
2022-09-05T00:15:15.083Z,100590.81
2022-09-05T00:18:09.834Z,100589.25
2022-09-05T00:24:22.999Z,100586.37
2022-09-05T00:24:32.507Z,100585.44
2022-09-05T00:27:13.743Z,100587.28
2022-09-05T00:31:05.622Z,100582.22
2022-09-05T00:32:58.738Z,100584.78
2022-09-05T00:35:30.728Z,100579.59
2022-09-05T00:37:58.192Z,100575.47
2022-09-05T00:40:30.185Z,100577.22
2022-09-05T00:43:14.920Z,100574.69
2022-09-05T00:45:47.608Z,100579.84
2022-09-05T00:48:29.414Z,100577.41
2022-09-05T00:51:11.882Z,100579.22
2022-09-05T00:54:26.423Z,100572.25
2022-09-05T00:57:28.244Z,100576.56
2022-09-05T01:00:23.886Z,100573.00
2022-09-05T01:02:54.204Z,100585.47
2022-09-05T01:05:45.329Z,100582.66
2022-09-05T01:08:47.136Z,100575.66
2022-09-05T01:11:38.558Z,100571.41
2022-09-05T01:14:23.968Z,100571.41
2022-09-05T01:17:12.800Z,100573.22
2022-09-05T01:20:20.022Z,100572.34
2022-09-05T01:23:15.441Z,100568.78
2022-09-05T01:26:17.674Z,100578.56
2022-09-05T01:29:15.153Z,100574.19
2022-09-05T01:32:15.475Z,100576.84
2022-09-05T01:34:42.988Z,100582.00
2022-09-05T01:37:32.658Z,100572.59
2022-09-05T01:40:15.140Z,100575.25
2022-09-05T01:42:56.858Z,100571.78
2022-09-05T01:45:30.772Z,100572.63
2022-09-05T01:48:13.353Z,100577.06
2022-09-05T01:50:56.136Z,100571.94
2022-09-05T01:53:51.435Z,100577.16
2022-09-05T01:56:33.731Z,100573.75
2022-09-05T01:59:00.930Z,100576.47
2022-09-05T02:01:46.235Z,100581.97
2022-09-05T02:04:41.346Z,100579.37
2022-09-05T02:07:47.635Z,100581.00
2022-09-05T02:10:31.824Z,100576.47
2022-09-05T02:13:20.805Z,100577.31
2022-09-05T02:15:59.789Z,100576.37
2022-09-05T02:18:45.210Z,100582.75
2022-09-05T02:21:23.733Z,100575.03
2022-09-05T02:24:20.366Z,100572.50
2022-09-05T02:26:58.343Z,100575.22
2022-09-05T02:29:48.275Z,100584.88
2022-09-05T02:32:24.384Z,100579.63
2022-09-05T02:35:01.486Z,100591.00
2022-09-05T02:38:33.108Z,100583.28
2022-09-05T02:45:03.485Z,100580.50
2022-09-05T02:45:07.731Z,100583.28
2022-09-05T02:46:38.749Z,100584.16
2022-09-05T02:55:02.021Z,100585.06
2022-09-05T02:57:32.897Z,100593.09
2022-09-05T02:57:39.468Z,100577.19
2022-09-05T02:58:43.007Z,100589.44
2022-09-05T03:01:36.189Z,100589.59
2022-09-05T03:04:25.585Z,100596.50
2022-09-05T03:07:20.856Z,100597.41
2022-09-05T03:10:14.149Z,100601.09
2022-09-05T03:13:11.103Z,100595.12
2022-09-05T03:15:44.604Z,100597.81
2022-09-05T03:18:35.506Z,100601.44
2022-09-05T03:21:24.880Z,100603.91
2022-09-05T03:24:11.248Z,100599.72
2022-09-05T03:27:16.489Z,100601.50
2022-09-05T03:30:03.766Z,100606.81
2022-09-05T03:32:45.332Z,100600.03
2022-09-05T03:35:31.749Z,100602.72
2022-09-05T03:38:53.413Z,100606.25
2022-09-05T03:41:40.410Z,100609.81
2022-09-05T03:44:24.944Z,100612.31
2022-09-05T03:47:23.682Z,100614.00
2022-09-05T03:52:56.367Z,100615.66
2022-09-05T03:57:22.449Z,100615.66
2022-09-05T03:57:25.623Z,100622.63
2022-09-05T03:59:55.376Z,100627.03
2022-09-05T04:07:02.013Z,100627.94
2022-09-05T04:08:24.253Z,100625.47
2022-09-05T04:08:41.267Z,100633.37
2022-09-05T04:11:25.046Z,100635.00
2022-09-05T04:13:59.504Z,100637.00
2022-09-05T04:16:31.110Z,100636.84
2022-09-05T04:19:09.581Z,100636.09
2022-09-05T04:21:44.477Z,100648.34
2022-09-05T04:24:27.283Z,100654.22
2022-09-05T04:27:00.893Z,100651.72
2022-09-05T04:29:49.456Z,100662.03
2022-09-05T04:32:34.081Z,100655.91
2022-09-05T04:35:20.051Z,100656.78
2022-09-05T04:37:55.191Z,100656.69
2022-09-05T04:40:58.264Z,100661.97
2022-09-05T04:43:41.425Z,100661.03
2022-09-05T04:46:25.231Z,100667.00
2022-09-05T04:49:07.256Z,100661.88
2022-09-05T04:52:00.925Z,100665.38
2022-09-05T04:54:34.274Z,100667.22
2022-09-05T04:57:13.792Z,100675.84
2022-09-05T05:02:12.757Z,100679.25
2022-09-05T05:06:08.546Z,100683.66
2022-09-05T05:06:08.726Z,100674.69
2022-09-05T05:08:43.169Z,100674.56
2022-09-05T05:17:52.201Z,100672.59
2022-09-05T05:18:10.724Z,100674.09
2022-09-05T05:18:15.465Z,100675.62
2022-09-05T05:20:40.748Z,100676.19
2022-09-05T05:23:08.429Z,100686.41
2022-09-05T05:25:44.593Z,100671.19
2022-09-05T05:28:30.087Z,100673.03
2022-09-05T05:31:09.309Z,100674.22
2022-09-05T05:33:39.021Z,100676.53
2022-09-05T05:36:09.827Z,100675.94
2022-09-05T05:38:37.284Z,100675.62
2022-09-05T05:41:13.883Z,100677.09
2022-09-05T05:43:46.483Z,100674.59
2022-09-05T05:46:33.382Z,100676.88
2022-09-05T05:49:44.569Z,100680.13
2022-09-05T05:52:46.750Z,100680.25
2022-09-05T05:55:48.908Z,100680.75
2022-09-05T05:58:44.673Z,100681.13
2022-09-05T06:01:38.450Z,100687.31
2022-09-05T06:04:30.615Z,100680.34
2022-09-05T06:07:26.705Z,100681.50
2022-09-05T06:14:50.494Z,100684.53
2022-09-05T06:15:05.066Z,100685.16
2022-09-05T06:16:34.342Z,100682.34
2022-09-05T06:19:31.855Z,100691.84
2022-09-05T06:22:33.411Z,100686.19
2022-09-05T06:25:20.863Z,100676.41
2022-09-05T06:28:27.592Z,100681.59
2022-09-05T06:31:31.211Z,100685.56
2022-09-05T06:34:33.282Z,100685.56
2022-09-05T06:37:40.551Z,100690.09
2022-09-05T06:40:31.475Z,100688.31
2022-09-05T06:43:31.706Z,100687.56
2022-09-05T06:46:09.246Z,100695.72
2022-09-05T06:48:45.645Z,100694.53
2022-09-05T06:51:23.510Z,100699.94
2022-09-05T06:54:29.606Z,100703.19
2022-09-05T06:57:48.142Z,100701.00
2022-09-05T07:00:24.834Z,100703.66
2022-09-05T07:03:07.440Z,100697.69
2022-09-05T07:05:45.379Z,100704.31
2022-09-05T07:08:35.660Z,100697.78
2022-09-05T07:11:24.820Z,100694.34
2022-09-05T07:14:04.462Z,100696.69
2022-09-05T07:16:55.342Z,100703.06
2022-09-05T07:19:31.576Z,100703.16
2022-09-05T07:22:48.383Z,100704.13
2022-09-05T07:25:26.126Z,100701.03
2022-09-05T07:28:26.732Z,100705.22
2022-09-05T07:30:50.159Z,100698.34
2022-09-05T07:33:24.532Z,100698.91
2022-09-05T07:35:52.644Z,100708.03
2022-09-05T07:38:52.052Z,100709.06
2022-09-05T07:41:22.606Z,100701.37
2022-09-05T07:43:55.482Z,100699.25
2022-09-05T07:46:26.585Z,100703.72
2022-09-05T07:48:59.470Z,100704.81
2022-09-05T07:56:47.566Z,100706.16
2022-09-05T07:57:02.365Z,100697.66
2022-09-05T07:57:32.499Z,100700.50
2022-09-05T08:00:26.745Z,100692.06
2022-09-05T08:02:59.469Z,100685.19
2022-09-05T08:05:35.222Z,100693.06
2022-09-05T08:08:08.648Z,100693.09
2022-09-05T08:11:24.097Z,100687.94
2022-09-05T08:13:52.359Z,100692.25
2022-09-05T08:16:22.292Z,100696.50
2022-09-05T08:19:00.837Z,100696.75
2022-09-05T08:21:42.368Z,100694.06
2022-09-05T08:24:21.490Z,100690.34
2022-09-05T08:26:56.658Z,100694.22
2022-09-05T08:29:32.441Z,100693.25
2022-09-05T08:32:08.422Z,100682.13
2022-09-05T08:34:59.489Z,100695.25
2022-09-05T08:37:27.315Z,100691.09
2022-09-05T08:40:11.687Z,100687.22
2022-09-05T08:43:38.025Z,100685.50
2022-09-05T08:46:40.020Z,100680.75
2022-09-05T08:49:16.226Z,100680.31
2022-09-05T08:52:02.444Z,100680.50
2022-09-05T08:54:41.810Z,100675.25
2022-09-05T08:57:24.646Z,100659.81
2022-09-05T09:00:18.367Z,100672.06
2022-09-05T09:03:15.885Z,100671.72
2022-09-05T09:06:12.043Z,100665.16
2022-09-05T09:08:54.400Z,100665.94
2022-09-05T09:11:36.586Z,100661.09
2022-09-05T09:14:30.527Z,100648.50
2022-09-05T09:17:06.699Z,100649.78
2022-09-05T09:20:06.591Z,100647.03
2022-09-05T09:22:37.736Z,100650.50
2022-09-05T09:25:18.521Z,100645.84
2022-09-05T09:28:47.635Z,100649.12
2022-09-05T09:30:57.536Z,100651.25
2022-09-05T09:33:39.789Z,100650.37
2022-09-05T09:36:25.944Z,100654.50
2022-09-05T09:39:38.726Z,100656.00
2022-09-05T09:42:33.795Z,100656.28
2022-09-05T09:45:27.836Z,100655.78
2022-09-05T09:48:16.554Z,100654.59
2022-09-05T09:51:12.282Z,100653.16
2022-09-05T09:53:52.542Z,100644.84
2022-09-05T09:56:51.059Z,100642.75
2022-09-05T09:59:34.724Z,100636.87
2022-09-05T10:06:52.518Z,100646.97
2022-09-05T10:10:39.741Z,100642.22
2022-09-05T10:10:54.667Z,100639.69
2022-09-05T10:11:56.162Z,100640.56
2022-09-05T10:15:18.583Z,100635.97
2022-09-05T10:18:25.875Z,100640.47
2022-09-05T10:21:16.225Z,100638.16
2022-09-05T10:24:14.332Z,100643.50
2022-09-05T10:27:05.843Z,100637.97
2022-09-05T10:29:42.581Z,100634.72
2022-09-05T10:35:19.675Z,100626.91
2022-09-05T10:35:21.196Z,100632.63
2022-09-05T10:38:25.273Z,100627.47
2022-09-05T10:41:20.371Z,100615.91
2022-09-05T10:43:47.432Z,100613.87
2022-09-05T10:46:50.111Z,100608.03
2022-09-05T10:49:22.539Z,100606.41
2022-09-05T10:52:19.442Z,100612.47
2022-09-05T10:55:13.917Z,100600.97
2022-09-05T10:58:07.328Z,100599.72
2022-09-05T11:02:25.901Z,100597.00
2022-09-05T11:03:53.965Z,100595.94
2022-09-05T11:06:43.851Z,100594.81
2022-09-05T11:09:21.881Z,100594.19
2022-09-05T11:12:19.373Z,100584.97
2022-09-05T11:14:52.304Z,100590.22
2022-09-05T11:17:30.500Z,100594.00
2022-09-05T11:20:06.064Z,100587.44
2022-09-05T11:22:45.317Z,100587.53
2022-09-05T11:25:20.018Z,100582.94
2022-09-05T11:28:13.942Z,100586.25
2022-09-05T11:30:46.163Z,100577.25
2022-09-05T11:38:04.128Z,100581.03
2022-09-05T11:39:55.848Z,100581.00
2022-09-05T11:40:28.409Z,100583.97
2022-09-05T11:42:53.359Z,100582.50
2022-09-05T11:46:02.611Z,100570.34
2022-09-05T11:49:07.851Z,100570.84
2022-09-05T11:51:35.087Z,100564.84
2022-09-05T11:54:08.438Z,100558.63
2022-09-05T11:57:31.955Z,100568.06
2022-09-05T12:00:33.687Z,100561.50
2022-09-05T12:03:57.435Z,100559.97
2022-09-05T12:06:48.092Z,100558.00
2022-09-05T12:10:00.260Z,100556.09
2022-09-05T12:12:41.669Z,100558.19
2022-09-05T12:15:16.921Z,100559.94
2022-09-05T12:18:24.347Z,100554.56
2022-09-05T12:21:19.731Z,100554.69
2022-09-05T12:25:16.115Z,100550.47
2022-09-05T12:27:41.089Z,100548.50
2022-09-05T12:30:01.071Z,100551.91
2022-09-05T12:35:44.101Z,100548.69
2022-09-05T12:36:11.620Z,100538.91
2022-09-05T12:41:23.677Z,100542.13
2022-09-05T12:41:36.066Z,100538.63
2022-09-05T12:44:42.438Z,100535.91
2022-09-05T12:47:18.823Z,100530.25
2022-09-05T12:50:03.002Z,100530.16
2022-09-05T12:52:44.853Z,100518.66
2022-09-05T12:55:25.942Z,100520.38
2022-09-05T13:02:26.406Z,100523.84
2022-09-05T13:03:02.515Z,100518.09
2022-09-05T13:04:18.191Z,100518.78
2022-09-05T13:06:53.654Z,100524.78
2022-09-05T13:12:57.733Z,100516.94
2022-09-05T13:14:52.573Z,100512.06
2022-09-05T13:15:42.082Z,100512.44
2022-09-05T13:18:16.540Z,100507.22
2022-09-05T13:20:51.379Z,100502.97
2022-09-05T13:23:50.076Z,100500.09
2022-09-05T13:26:43.096Z,100499.13
2022-09-05T13:29:20.391Z,100500.19
2022-09-05T13:37:59.481Z,100491.97
2022-09-05T13:38:03.242Z,100498.53
2022-09-05T13:38:10.558Z,100491.28
2022-09-05T13:40:38.826Z,100486.06
2022-09-05T13:43:14.731Z,100490.12
2022-09-05T13:45:54.443Z,100482.19
2022-09-05T13:48:28.321Z,100480.63
2022-09-05T13:51:03.628Z,100480.81
2022-09-05T13:53:43.909Z,100476.03
2022-09-05T13:56:24.850Z,100477.78
2022-09-05T13:59:16.609Z,100476.12
2022-09-05T14:02:29.304Z,100465.78
2022-09-05T14:05:26.212Z,100465.91
2022-09-05T14:08:17.907Z,100467.81
2022-09-05T14:11:31.353Z,100456.75
2022-09-05T14:14:12.001Z,100459.81
2022-09-05T14:16:54.303Z,100459.59
2022-09-05T14:19:43.385Z,100457.13
2022-09-05T14:22:28.952Z,100457.41
2022-09-05T14:24:58.522Z,100451.66
2022-09-05T14:27:32.173Z,100452.41
2022-09-05T14:30:12.802Z,100447.47
2022-09-05T14:37:41.619Z,100450.34
2022-09-05T14:37:43.038Z,100443.72
2022-09-05T14:40:29.208Z,100443.16
2022-09-05T14:43:15.684Z,100442.28
2022-09-05T14:46:02.606Z,100433.06
2022-09-05T14:49:10.746Z,100434.94
2022-09-05T14:51:39.547Z,100441.69
2022-09-05T15:02:38.612Z,100440.69
2022-09-05T15:02:52.811Z,100444.09
2022-09-05T15:03:03.681Z,100434.94
2022-09-05T15:05:40.965Z,100438.75
2022-09-05T15:10:49.768Z,100430.34
2022-09-05T15:12:18.701Z,100433.22
2022-09-05T15:14:03.545Z,100431.97
2022-09-05T15:16:35.468Z,100427.88
2022-09-05T15:19:03.300Z,100430.72
2022-09-05T15:21:40.544Z,100422.22
2022-09-05T15:24:22.825Z,100432.72
2022-09-05T15:26:52.672Z,100427.22
2022-09-05T15:29:34.020Z,100426.16
2022-09-05T15:32:25.963Z,100425.75
2022-09-05T15:34:56.153Z,100425.06
2022-09-05T15:37:36.981Z,100425.75
2022-09-05T15:40:22.733Z,100423.47
2022-09-05T15:42:51.450Z,100421.56
2022-09-05T15:45:23.649Z,100419.19
2022-09-05T15:48:01.950Z,100426.44
2022-09-05T15:50:41.405Z,100420.13
2022-09-05T15:53:13.576Z,100418.31
2022-09-05T15:55:50.382Z,100421.56
2022-09-05T15:58:28.471Z,100418.91
2022-09-05T16:01:30.344Z,100412.50
2022-09-05T16:08:54.241Z,100415.34
2022-09-05T16:10:37.854Z,100412.59
2022-09-05T16:10:48.806Z,100411.38
2022-09-05T16:18:06.919Z,100406.09
2022-09-05T16:23:16.526Z,100407.25
2022-09-05T16:23:32.503Z,100397.44
2022-09-05T16:24:24.663Z,100400.75
2022-09-05T16:27:07.035Z,100397.72
2022-09-05T16:29:44.523Z,100390.91
2022-09-05T16:32:21.275Z,100391.09
2022-09-05T16:35:03.452Z,100391.56
2022-09-05T16:37:35.589Z,100388.34
2022-09-05T16:40:18.082Z,100398.53
2022-09-05T16:42:48.127Z,100389.00
2022-09-05T16:45:48.141Z,100389.69
2022-09-05T16:48:55.109Z,100387.38
2022-09-05T16:51:38.932Z,100380.50
2022-09-05T16:54:18.502Z,100388.97
2022-09-05T16:56:52.502Z,100395.75
2022-09-05T16:59:22.601Z,100396.09
2022-09-05T17:01:56.057Z,100403.88
2022-09-05T17:05:04.906Z,100390.69
2022-09-05T17:07:58.057Z,100394.50
2022-09-05T17:10:57.271Z,100393.44
2022-09-05T17:13:37.797Z,100391.66
2022-09-05T17:16:06.859Z,100392.09
2022-09-05T17:18:35.634Z,100399.87
2022-09-05T17:21:12.311Z,100395.88
2022-09-05T17:29:15.352Z,100391.25
2022-09-05T17:29:27.753Z,100400.63
2022-09-05T17:32:47.116Z,100405.25
2022-09-05T17:35:41.525Z,100404.91
2022-09-05T17:38:17.974Z,100404.81
2022-09-05T17:41:16.660Z,100407.31
2022-09-05T17:43:58.018Z,100409.94
2022-09-05T17:46:26.314Z,100408.47
2022-09-05T17:49:19.471Z,100416.84
2022-09-05T17:51:51.867Z,100411.09
2022-09-05T17:54:30.830Z,100417.44
2022-09-05T17:57:27.255Z,100419.03
2022-09-05T18:00:45.442Z,100425.12
2022-09-05T18:03:36.104Z,100428.00
2022-09-05T18:06:06.585Z,100435.59
2022-09-05T18:08:46.528Z,100443.16
2022-09-05T18:11:25.449Z,100438.16
2022-09-05T18:14:01.123Z,100443.16
2022-09-05T18:17:35.196Z,100440.16
2022-09-05T18:23:26.375Z,100444.69
2022-09-05T18:26:23.320Z,100442.59
2022-09-05T18:28:59.132Z,100442.38
2022-09-05T18:31:53.304Z,100438.91
2022-09-05T18:34:21.225Z,100441.06
2022-09-05T18:36:53.643Z,100446.63
2022-09-05T18:39:23.326Z,100449.59
2022-09-05T18:42:26.451Z,100448.72
2022-09-05T18:45:00.711Z,100460.31
2022-09-05T18:47:58.954Z,100457.16
2022-09-05T18:50:35.192Z,100467.31
2022-09-05T18:53:10.039Z,100459.88
2022-09-05T18:56:14.181Z,100469.53
2022-09-05T18:59:09.521Z,100466.06
2022-09-05T19:01:43.530Z,100466.41
2022-09-05T19:04:39.388Z,100460.31
2022-09-05T19:07:39.761Z,100456.91
2022-09-05T19:10:35.731Z,100457.41
2022-09-05T19:13:19.544Z,100455.16
2022-09-05T19:15:59.894Z,100460.87
2022-09-05T19:19:05.763Z,100451.59
2022-09-05T19:21:34.212Z,100451.75
2022-09-05T19:24:06.937Z,100455.75
2022-09-05T19:26:34.755Z,100452.12
2022-09-05T19:37:08.889Z,100455.94
2022-09-05T19:37:15.286Z,100449.47
2022-09-05T19:37:15.601Z,100449.12
2022-09-05T19:37:44.581Z,100438.38
2022-09-05T19:47:30.074Z,100445.00
2022-09-05T19:47:35.188Z,100447.19
2022-09-05T19:47:41.035Z,100440.72
2022-09-05T19:49:19.844Z,100442.34
2022-09-05T19:51:47.464Z,100443.87
2022-09-05T19:54:24.123Z,100445.44
2022-09-05T19:57:00.307Z,100441.41
2022-09-05T19:59:34.659Z,100440.81
2022-09-05T20:02:02.736Z,100438.44
2022-09-05T20:04:44.180Z,100442.69
2022-09-05T20:07:20.376Z,100432.16
2022-09-05T20:09:50.584Z,100441.41
2022-09-05T20:12:36.698Z,100441.19
2022-09-05T20:15:21.399Z,100438.03
2022-09-05T20:17:51.321Z,100435.00
2022-09-05T20:20:28.172Z,100435.44
2022-09-05T20:23:00.345Z,100439.41
2022-09-05T20:25:38.176Z,100432.66
2022-09-05T20:28:10.146Z,100427.22
2022-09-05T20:30:42.534Z,100429.09
2022-09-05T20:33:34.505Z,100430.75
2022-09-05T20:41:11.624Z,100437.72
2022-09-05T20:43:14.708Z,100435.06
2022-09-05T20:43:27.335Z,100430.59
2022-09-05T20:44:37.846Z,100436.91
2022-09-05T20:52:19.013Z,100441.47
2022-09-05T20:54:20.950Z,100442.28
2022-09-05T20:54:27.601Z,100434.00
2022-09-05T20:56:09.508Z,100435.06
2022-09-05T20:58:38.543Z,100437.41
2022-09-05T21:01:20.203Z,100443.47
2022-09-05T21:04:04.158Z,100451.59
2022-09-05T21:06:34.578Z,100447.28
2022-09-05T21:09:08.256Z,100444.34
2022-09-05T21:11:35.579Z,100443.97
2022-09-05T21:14:04.700Z,100439.22
2022-09-05T21:16:36.441Z,100441.69
2022-09-05T21:19:04.217Z,100445.72
2022-09-05T21:21:34.056Z,100441.19
2022-09-05T21:24:17.705Z,100441.81
2022-09-05T21:26:48.329Z,100451.66
2022-09-05T21:29:25.573Z,100452.97
2022-09-05T21:32:01.771Z,100446.53
2022-09-05T21:34:33.215Z,100446.59
2022-09-05T21:37:07.605Z,100437.00
2022-09-05T21:39:39.976Z,100445.53
2022-09-05T21:42:39.133Z,100447.41
2022-09-05T21:47:47.785Z,100445.91
2022-09-05T21:47:52.346Z,100437.16
2022-09-05T21:50:31.417Z,100443.47
2022-09-05T21:55:10.729Z,100434.72
2022-09-05T21:59:18.645Z,100441.06
2022-09-05T21:59:24.251Z,100446.63
2022-09-05T22:01:50.930Z,100446.72
2022-09-05T22:04:15.242Z,100452.41
2022-09-05T22:06:44.776Z,100447.81
2022-09-05T22:09:14.317Z,100448.06
2022-09-05T22:11:42.139Z,100444.44
2022-09-05T22:14:09.924Z,100442.84
2022-09-05T22:16:37.672Z,100450.87
2022-09-05T22:19:37.067Z,100443.81
2022-09-05T22:22:15.881Z,100446.47
2022-09-05T22:24:48.355Z,100444.91
2022-09-05T22:27:20.220Z,100451.31
2022-09-05T22:29:50.473Z,100440.87
2022-09-05T22:32:28.529Z,100441.56
2022-09-05T22:35:15.989Z,100430.31
2022-09-05T22:38:00.193Z,100434.75
2022-09-05T22:40:29.504Z,100431.84
2022-09-05T22:42:57.962Z,100426.78
2022-09-05T22:45:26.251Z,100426.59
2022-09-05T22:47:54.058Z,100433.91
2022-09-05T22:50:21.817Z,100432.12
2022-09-05T22:52:57.656Z,100432.88
2022-09-05T22:55:25.308Z,100433.91
2022-09-05T22:57:52.644Z,100432.19
2022-09-05T23:00:21.334Z,100436.72
2022-09-05T23:02:52.383Z,100427.19
2022-09-05T23:05:20.240Z,100434.31
2022-09-05T23:07:47.575Z,100428.94
2022-09-05T23:10:15.252Z,100429.03
2022-09-05T23:12:42.584Z,100421.19
2022-09-05T23:15:13.194Z,100416.78
2022-09-05T23:17:41.371Z,100422.91
2022-09-05T23:20:10.427Z,100415.63
2022-09-05T23:22:38.910Z,100425.34
2022-09-05T23:25:07.291Z,100420.91
2022-09-05T23:27:36.725Z,100417.28
2022-09-05T23:30:06.000Z,100415.50
2022-09-05T23:32:33.887Z,100421.66
2022-09-05T23:35:01.773Z,100414.69
2022-09-05T23:37:29.185Z,100416.25
2022-09-05T23:39:56.812Z,100414.56
2022-09-05T23:42:24.163Z,100404.06
2022-09-05T23:44:58.784Z,100404.97
2022-09-05T23:47:27.215Z,100403.91
2022-09-05T23:49:56.321Z,100404.91
2022-09-05T23:52:23.677Z,100408.38
2022-09-05T23:54:51.277Z,100400.59
2022-09-05T23:57:22.938Z,100407.94
2022-09-05T23:59:52.455Z,100404.25
